createdAt,value
2018-11-29T00:00:39.847Z,12.03
2018-11-29T00:03:09.609Z,11.40
2018-11-29T00:05:38.627Z,12.07
2018-11-29T00:08:07.376Z,12.23
2018-11-29T00:10:35.908Z,12.70
2018-11-29T00:13:05.024Z,11.90
2018-11-29T00:15:33.984Z,12.77
2018-11-29T00:18:02.553Z,13.20
2018-11-29T00:20:31.189Z,13.43
2018-11-29T00:22:59.759Z,13.73
2018-11-29T00:25:28.339Z,14.07
2018-11-29T00:27:56.903Z,14.90
2018-11-29T00:30:26.031Z,14.73
2018-11-29T00:32:55.513Z,16.47
2018-11-29T00:35:24.058Z,14.50
2018-11-29T00:37:52.612Z,14.93
2018-11-29T00:40:22.278Z,15.43
2018-11-29T00:42:50.886Z,16.47
2018-11-29T00:45:20.417Z,16.23
2018-11-29T00:47:49.511Z,16.37
2018-11-29T00:50:18.695Z,15.97
2018-11-29T00:52:48.141Z,16.07
2018-11-29T00:55:17.905Z,15.87
2018-11-29T00:57:46.491Z,16.10
2018-11-29T01:00:19.068Z,17.30
2018-11-29T01:02:47.762Z,16.30
2018-11-29T01:05:16.346Z,16.53
2018-11-29T01:07:44.900Z,17.20
2018-11-29T01:10:15.569Z,16.83
2018-11-29T01:12:44.804Z,15.87
2018-11-29T01:15:18.128Z,17.60
2018-11-29T01:17:47.749Z,16.57
2018-11-29T01:20:17.637Z,17.13
2018-11-29T01:22:46.214Z,17.27
2018-11-29T01:25:15.471Z,17.43
2018-11-29T01:27:45.279Z,17.73
2018-11-29T01:30:15.902Z,17.67
2018-11-29T01:32:44.757Z,17.17
2018-11-29T01:35:15.510Z,17.13
2018-11-29T01:37:44.029Z,17.27
2018-11-29T01:40:18.567Z,17.57
2018-11-29T01:42:48.622Z,18.27
2018-11-29T01:45:17.255Z,17.13
2018-11-29T01:47:46.048Z,19.20
2018-11-29T01:50:15.492Z,18.13
2018-11-29T01:52:44.086Z,18.00
2018-11-29T01:55:12.611Z,18.37
2018-11-29T01:57:41.127Z,17.73
2018-11-29T02:00:16.959Z,17.83
2018-11-29T02:02:46.945Z,17.63
2018-11-29T02:05:15.542Z,17.87
2018-11-29T02:07:44.171Z,18.00
2018-11-29T02:10:19.321Z,16.63
2018-11-29T02:12:47.949Z,16.60
2018-11-29T02:15:16.615Z,16.47
2018-11-29T02:17:45.379Z,17.87
2018-11-29T02:20:17.879Z,15.87
2018-11-29T02:22:47.103Z,17.73
2018-11-29T02:25:15.732Z,17.97
2018-11-29T02:27:44.255Z,17.40
2018-11-29T02:30:18.530Z,17.50
2018-11-29T02:32:47.745Z,18.43
2018-11-29T02:35:16.359Z,16.83
2018-11-29T02:37:44.927Z,17.03
2018-11-29T02:40:14.817Z,16.60
2018-11-29T02:42:43.952Z,17.00
2018-11-29T02:45:16.766Z,16.93
2018-11-29T02:47:45.430Z,16.83
2018-11-29T02:50:14.631Z,15.67
2018-11-29T02:52:43.213Z,16.40
2018-11-29T02:55:12.707Z,17.70
2018-11-29T02:57:41.891Z,16.87
2018-11-29T03:00:15.815Z,17.07
2018-11-29T03:02:44.362Z,16.37
2018-11-29T03:05:13.134Z,17.37
2018-11-29T03:07:41.703Z,16.17
2018-11-29T03:10:11.387Z,16.33
2018-11-29T03:12:40.069Z,15.80
2018-11-29T03:15:12.034Z,16.27
2018-11-29T03:17:40.982Z,16.27
2018-11-29T03:20:10.774Z,16.97
2018-11-29T03:22:39.471Z,16.27
2018-11-29T03:25:10.536Z,16.40
2018-11-29T03:27:39.069Z,16.87
2018-11-29T03:30:10.523Z,17.20
2018-11-29T03:32:39.074Z,16.73
2018-11-29T03:35:08.447Z,17.47
2018-11-29T03:37:37.010Z,17.53
2018-11-29T03:40:09.511Z,18.07
2018-11-29T03:42:38.251Z,18.63
2018-11-29T03:45:08.699Z,17.47
2018-11-29T03:47:37.676Z,18.83
2018-11-29T03:50:11.927Z,17.73
2018-11-29T03:52:40.505Z,16.67
2018-11-29T03:55:10.019Z,16.07
2018-11-29T03:57:39.259Z,16.63
2018-11-29T04:00:12.164Z,16.30
2018-11-29T04:02:40.767Z,15.50
2018-11-29T04:05:09.297Z,15.03
2018-11-29T04:07:37.942Z,16.20
2018-11-29T04:10:08.552Z,15.60
2018-11-29T04:12:37.100Z,15.90
2018-11-29T04:15:06.862Z,15.47
2018-11-29T04:17:40.652Z,14.90
2018-11-29T04:20:04.771Z,14.33
2018-11-29T04:22:33.323Z,15.20
2018-11-29T04:25:01.893Z,14.83
2018-11-29T04:27:30.451Z,14.90
2018-11-29T04:29:58.975Z,14.90
2018-11-29T04:32:27.526Z,14.47
2018-11-29T04:34:56.100Z,13.87
2018-11-29T04:37:24.603Z,14.40
2018-11-29T04:39:53.125Z,14.67
2018-11-29T04:42:21.703Z,14.30
2018-11-29T04:44:50.237Z,15.03
2018-11-29T04:47:18.903Z,14.67
2018-11-29T04:49:47.461Z,14.53
2018-11-29T04:52:15.997Z,15.73
2018-11-29T04:54:44.534Z,13.87
2018-11-29T04:57:13.044Z,14.23
2018-11-29T04:59:41.592Z,14.87
2018-11-29T05:02:11.819Z,14.80
2018-11-29T05:04:38.687Z,14.50
2018-11-29T05:07:07.202Z,13.87
2018-11-29T05:09:35.710Z,14.87
2018-11-29T05:12:04.231Z,14.50
2018-11-29T05:14:32.749Z,14.27
2018-11-29T05:17:01.304Z,14.07
2018-11-29T05:19:29.916Z,14.27
2018-11-29T05:21:58.467Z,13.53
2018-11-29T05:24:27.015Z,13.87
2018-11-29T05:26:55.589Z,13.13
2018-11-29T05:29:24.147Z,13.13
2018-11-29T05:31:52.690Z,12.60
2018-11-29T05:34:21.213Z,13.40
2018-11-29T05:36:49.799Z,13.20
2018-11-29T05:39:18.319Z,13.60
2018-11-29T05:41:46.832Z,13.63
2018-11-29T05:44:15.356Z,13.37
2018-11-29T05:46:43.891Z,13.23
2018-11-29T05:49:12.471Z,14.37
2018-11-29T05:51:40.958Z,13.93
2018-11-29T05:54:09.470Z,14.60
2018-11-29T05:56:38.196Z,13.60
2018-11-29T05:59:07.189Z,15.30
2018-11-29T06:01:37.984Z,13.50
2018-11-29T06:04:06.623Z,14.57
2018-11-29T06:06:35.237Z,15.30
2018-11-29T06:09:05.469Z,14.77
2018-11-29T06:11:34.038Z,14.47
2018-11-29T06:14:02.565Z,14.73
2018-11-29T06:16:31.087Z,14.17
2018-11-29T06:18:59.594Z,14.33
2018-11-29T06:21:28.140Z,13.83
2018-11-29T06:23:56.708Z,14.00
2018-11-29T06:26:25.241Z,14.57
2018-11-29T06:28:53.821Z,14.30
2018-11-29T06:31:22.397Z,13.80
2018-11-29T06:33:51.650Z,13.90
2018-11-29T06:36:20.163Z,14.20
2018-11-29T06:38:48.727Z,14.20
2018-11-29T06:41:17.268Z,13.77
2018-11-29T06:43:45.812Z,14.73
2018-11-29T06:46:14.334Z,14.13
2018-11-29T06:48:42.862Z,13.53
2018-11-29T06:51:11.377Z,13.03
2018-11-29T06:53:45.306Z,13.97
2018-11-29T06:56:13.880Z,13.87
2018-11-29T06:58:42.633Z,14.20
2018-11-29T07:01:11.131Z,13.67
2018-11-29T07:03:39.679Z,13.70
2018-11-29T07:06:08.218Z,14.93
2018-11-29T07:08:36.863Z,14.07
2018-11-29T07:11:05.402Z,14.67
2018-11-29T07:13:34.020Z,13.97
2018-11-29T07:16:02.544Z,14.40
2018-11-29T07:18:31.054Z,13.80
2018-11-29T07:21:10.979Z,13.93
2018-11-29T07:23:39.527Z,14.33
2018-11-29T07:26:08.219Z,13.80
2018-11-29T07:28:36.771Z,13.53
2018-11-29T07:31:05.910Z,14.63
2018-11-29T07:33:34.437Z,14.13
2018-11-29T07:36:02.976Z,13.83
2018-11-29T07:38:31.537Z,14.80
2018-11-29T07:41:00.074Z,14.13
2018-11-29T07:43:28.591Z,13.60
2018-11-29T07:45:57.155Z,13.53
2018-11-29T07:48:25.712Z,13.97
2018-11-29T07:50:54.308Z,13.00
2018-11-29T07:53:22.848Z,12.80
2018-11-29T07:55:51.532Z,13.37
2018-11-29T07:58:20.164Z,14.30
2018-11-29T08:00:48.753Z,14.23
2018-11-29T08:03:17.277Z,13.63
2018-11-29T08:05:45.832Z,13.40
2018-11-29T08:08:14.380Z,13.43
2018-11-29T08:10:42.959Z,14.03
2018-11-29T08:13:11.492Z,12.93
2018-11-29T08:15:40.118Z,13.13
2018-11-29T08:18:08.819Z,13.53
2018-11-29T08:20:37.351Z,14.20
2018-11-29T08:23:06.125Z,13.57
2018-11-29T08:25:34.784Z,13.30
2018-11-29T08:28:03.410Z,14.20
2018-11-29T08:30:32.055Z,14.07
2018-11-29T08:33:00.636Z,13.43
2018-11-29T08:35:29.164Z,13.33
2018-11-29T08:37:57.703Z,12.87
2018-11-29T08:40:26.255Z,12.97
2018-11-29T08:42:54.791Z,13.10
2018-11-29T08:45:23.438Z,12.87
2018-11-29T08:47:52.079Z,13.80
2018-11-29T08:50:20.605Z,13.37
2018-11-29T08:52:49.240Z,12.50
2018-11-29T08:55:18.880Z,13.47
2018-11-29T08:57:48.481Z,13.90
2018-11-29T09:00:19.080Z,13.00
2018-11-29T09:02:47.671Z,13.03
2018-11-29T09:05:16.298Z,12.23
2018-11-29T09:07:46.166Z,12.80
2018-11-29T09:10:16.141Z,13.53
2018-11-29T09:12:44.675Z,12.33
2018-11-29T09:15:15.570Z,13.60
2018-11-29T09:17:44.087Z,12.67
2018-11-29T09:20:15.044Z,13.00
2018-11-29T09:22:43.575Z,12.27
2018-11-29T09:25:20.074Z,12.27
2018-11-29T09:27:48.623Z,12.57
2018-11-29T09:30:18.375Z,13.67
2018-11-29T09:32:47.800Z,13.30
2018-11-29T09:35:16.651Z,12.77
2018-11-29T09:37:46.059Z,12.90
2018-11-29T09:40:15.703Z,13.17
2018-11-29T09:42:44.846Z,12.70
2018-11-29T09:45:19.442Z,13.10
2018-11-29T09:47:49.323Z,12.73
2018-11-29T09:50:18.449Z,13.00
2018-11-29T09:52:46.992Z,12.43
2018-11-29T09:55:16.590Z,13.93
2018-11-29T09:57:45.891Z,13.03
2018-11-29T10:00:28.772Z,13.47
2018-11-29T10:03:05.208Z,12.90
2018-11-29T10:05:34.016Z,13.30
2018-11-29T10:08:02.559Z,12.87
2018-11-29T10:10:31.213Z,13.40
2018-11-29T10:12:59.721Z,13.43
2018-11-29T10:15:28.280Z,13.33
2018-11-29T10:17:56.830Z,13.40
2018-11-29T10:20:25.359Z,12.90
2018-11-29T10:22:53.926Z,13.93
2018-11-29T10:25:22.510Z,14.30
2018-11-29T10:27:56.142Z,14.30
2018-11-29T10:30:29.559Z,14.17
2018-11-29T10:32:58.081Z,14.67
2018-11-29T10:35:26.707Z,15.40
2018-11-29T10:37:55.257Z,13.87
2018-11-29T10:40:23.908Z,14.97
2018-11-29T10:42:52.550Z,13.47
2018-11-29T10:45:21.409Z,13.77
2018-11-29T10:47:52.489Z,14.73
2018-11-29T10:50:20.138Z,15.07
2018-11-29T10:52:48.723Z,13.73
2018-11-29T10:55:18.243Z,15.33
2018-11-29T10:57:46.827Z,13.73
2018-11-29T11:00:24.028Z,13.60
2018-11-29T11:02:58.912Z,14.10
2018-11-29T11:05:27.855Z,14.67
2018-11-29T11:07:56.348Z,14.37
2018-11-29T11:10:24.907Z,14.93
2018-11-29T11:12:53.444Z,14.43
2018-11-29T11:15:22.018Z,14.17
2018-11-29T11:17:50.691Z,13.60
2018-11-29T11:20:19.269Z,13.97
2018-11-29T11:22:47.813Z,14.37
2018-11-29T11:25:16.377Z,14.00
2018-11-29T11:27:44.971Z,14.43
2018-11-29T11:30:16.829Z,14.90
2018-11-29T11:32:46.603Z,14.63
2018-11-29T11:35:15.169Z,15.17
2018-11-29T11:37:43.710Z,15.50
2018-11-29T11:40:13.610Z,14.80
2018-11-29T11:42:42.170Z,15.20
2018-11-29T11:45:12.362Z,15.70
2018-11-29T11:47:40.920Z,15.63
2018-11-29T11:50:15.748Z,16.10
2018-11-29T11:52:44.324Z,14.10
2018-11-29T11:55:18.952Z,15.43
2018-11-29T11:57:42.663Z,14.93
2018-11-29T12:00:19.340Z,15.47
2018-11-29T12:02:49.179Z,15.40
2018-11-29T12:05:17.982Z,15.83
2018-11-29T12:07:46.532Z,16.07
2018-11-29T12:10:16.120Z,15.40
2018-11-29T12:12:44.630Z,14.87
2018-11-29T12:15:14.382Z,14.87
2018-11-29T12:17:44.047Z,15.63
2018-11-29T12:20:17.811Z,16.33
2018-11-29T12:22:46.444Z,15.63
2018-11-29T12:25:19.090Z,15.23
2018-11-29T12:27:47.661Z,14.90
2018-11-29T12:30:33.267Z,15.20
2018-11-29T12:33:04.205Z,16.67
2018-11-29T12:35:33.052Z,15.93
2018-11-29T12:38:01.576Z,16.27
2018-11-29T12:40:30.260Z,15.83
2018-11-29T12:42:58.804Z,15.03
2018-11-29T12:45:27.336Z,16.70
2018-11-29T12:47:55.858Z,17.80
2018-11-29T12:50:25.439Z,16.67
2018-11-29T12:52:54.023Z,16.30
2018-11-29T12:55:24.823Z,17.77
2018-11-29T12:58:05.092Z,17.17
2018-11-29T13:00:23.596Z,16.60
2018-11-29T13:02:55.171Z,18.43
2018-11-29T13:05:24.000Z,18.40
2018-11-29T13:07:52.578Z,17.53
2018-11-29T13:10:22.255Z,17.87
2018-11-29T13:12:51.004Z,16.97
2018-11-29T13:15:22.875Z,17.70
2018-11-29T13:17:51.396Z,18.13
2018-11-29T13:20:20.012Z,18.70
2018-11-29T13:22:48.584Z,19.17
2018-11-29T13:25:18.334Z,19.57
2018-11-29T13:27:47.095Z,17.97
2018-11-29T13:30:17.731Z,18.93
2018-11-29T13:32:46.845Z,18.47
2018-11-29T13:35:21.763Z,17.80
2018-11-29T13:37:52.668Z,18.40
2018-11-29T13:40:21.191Z,19.40
2018-11-29T13:42:49.939Z,18.67
2018-11-29T13:45:18.572Z,18.40
2018-11-29T13:47:47.195Z,18.70
2018-11-29T13:50:16.910Z,19.23
2018-11-29T13:52:45.833Z,18.53
2018-11-29T13:55:15.159Z,20.83
2018-11-29T13:57:45.982Z,17.90
2018-11-29T14:00:19.667Z,17.53
2018-11-29T14:02:51.449Z,17.47
2018-11-29T14:05:20.099Z,18.53
2018-11-29T14:07:48.730Z,19.27
2018-11-29T14:10:24.591Z,18.90
2018-11-29T14:12:59.714Z,19.30
2018-11-29T14:15:29.427Z,19.13
2018-11-29T14:17:57.992Z,18.27
2018-11-29T14:20:26.558Z,19.87
2018-11-29T14:22:55.075Z,19.23
2018-11-29T14:25:23.592Z,19.07
2018-11-29T14:27:54.351Z,18.87
2018-11-29T14:30:25.156Z,19.57
2018-11-29T14:32:54.865Z,18.13
2018-11-29T14:35:23.707Z,21.23
2018-11-29T14:37:52.246Z,20.23
2018-11-29T14:40:22.087Z,19.47
2018-11-29T14:42:50.647Z,19.03
2018-11-29T14:45:20.346Z,21.43
2018-11-29T14:47:48.862Z,20.80
2018-11-29T14:50:29.032Z,20.37
2018-11-29T14:52:57.597Z,20.87
2018-11-29T14:55:26.340Z,21.90
2018-11-29T14:57:54.923Z,20.70
2018-11-29T15:00:23.478Z,21.70
2018-11-29T15:02:52.083Z,20.53
2018-11-29T15:05:25.781Z,21.43
2018-11-29T15:07:54.413Z,20.87
2018-11-29T15:10:22.957Z,21.93
2018-11-29T15:12:51.518Z,21.87
2018-11-29T15:15:20.108Z,21.17
2018-11-29T15:17:49.778Z,21.40
2018-11-29T15:20:28.106Z,21.57
2018-11-29T15:22:56.751Z,22.27
2018-11-29T15:25:25.435Z,21.03
2018-11-29T15:27:53.978Z,21.20
2018-11-29T15:30:23.385Z,21.80
2018-11-29T15:32:51.923Z,22.80
2018-11-29T15:35:20.452Z,22.47
2018-11-29T15:37:48.978Z,22.30
2018-11-29T15:40:18.282Z,23.67
2018-11-29T15:42:47.248Z,22.43
2018-11-29T15:45:18.039Z,23.83
2018-11-29T15:47:46.774Z,24.03
2018-11-29T15:50:16.101Z,22.43
2018-11-29T15:52:44.751Z,23.33
2018-11-29T15:55:17.640Z,23.80
2018-11-29T15:57:48.253Z,23.90
2018-11-29T16:00:27.845Z,24.90
2018-11-29T16:02:57.812Z,24.37
2018-11-29T16:05:26.530Z,23.67
2018-11-29T16:07:55.131Z,23.80
2018-11-29T16:10:24.980Z,23.17
2018-11-29T16:12:53.516Z,22.10
2018-11-29T16:15:22.492Z,22.03
2018-11-29T16:17:51.999Z,22.93
2018-11-29T16:20:25.670Z,22.93
2018-11-29T16:22:54.309Z,21.17
2018-11-29T16:25:23.014Z,21.93
2018-11-29T16:27:51.577Z,21.33
2018-11-29T16:30:54.810Z,21.70
2018-11-29T16:33:25.131Z,22.17
2018-11-29T16:36:00.443Z,22.10
2018-11-29T16:38:29.046Z,21.73
2018-11-29T16:40:57.619Z,20.70
2018-11-29T16:43:26.164Z,22.63
2018-11-29T16:45:54.887Z,20.43
2018-11-29T16:48:23.486Z,21.30
2018-11-29T16:50:52.029Z,22.20
2018-11-29T16:53:20.602Z,21.30
2018-11-29T16:55:49.151Z,21.47
2018-11-29T16:58:20.625Z,21.03
2018-11-29T17:00:49.191Z,21.33
2018-11-29T17:03:17.710Z,20.87
2018-11-29T17:05:46.407Z,21.80
2018-11-29T17:08:14.960Z,21.27
2018-11-29T17:10:43.584Z,21.00
2018-11-29T17:13:14.180Z,20.73
2018-11-29T17:15:42.878Z,21.63
2018-11-29T17:18:11.445Z,21.50
2018-11-29T17:20:39.999Z,21.17
2018-11-29T17:23:10.026Z,21.27
2018-11-29T17:25:38.640Z,22.20
2018-11-29T17:28:08.037Z,22.33
2018-11-29T17:30:37.402Z,21.70
2018-11-29T17:33:07.300Z,19.70
2018-11-29T17:35:36.261Z,19.60
2018-11-29T17:38:05.516Z,20.93
2018-11-29T17:40:34.619Z,20.93
2018-11-29T17:43:03.260Z,20.73
2018-11-29T17:45:32.111Z,19.40
2018-11-29T17:48:03.440Z,19.63
2018-11-29T17:50:33.612Z,19.23
2018-11-29T17:53:02.228Z,20.23
2018-11-29T17:55:30.792Z,20.50
2018-11-29T17:57:59.359Z,19.77
2018-11-29T18:00:31.839Z,21.07
2018-11-29T18:03:00.484Z,19.43
2018-11-29T18:05:29.013Z,20.43
2018-11-29T18:07:57.567Z,20.77
2018-11-29T18:10:27.755Z,20.53
2018-11-29T18:13:04.419Z,19.67
2018-11-29T18:15:34.652Z,20.13
2018-11-29T18:18:03.215Z,19.90
2018-11-29T18:20:31.755Z,19.70
2018-11-29T18:23:00.285Z,20.10
2018-11-29T18:25:28.883Z,19.60
2018-11-29T18:27:57.454Z,19.37
2018-11-29T18:30:26.016Z,20.67
2018-11-29T18:32:54.551Z,18.53
2018-11-29T18:35:23.980Z,19.97
2018-11-29T18:37:52.562Z,20.70
2018-11-29T18:40:22.137Z,19.53
2018-11-29T18:42:58.828Z,20.13
2018-11-29T18:45:27.823Z,20.77
2018-11-29T18:47:56.606Z,20.47
2018-11-29T18:50:26.435Z,20.70
2018-11-29T18:52:55.121Z,18.97
2018-11-29T18:55:27.124Z,19.63
2018-11-29T18:57:57.788Z,19.77
2018-11-29T19:00:29.660Z,18.63
2018-11-29T19:02:58.246Z,19.93
2018-11-29T19:05:27.152Z,19.83
2018-11-29T19:07:55.708Z,20.10
2018-11-29T19:10:24.409Z,19.07
2018-11-29T19:13:00.234Z,20.00
2018-11-29T19:15:28.943Z,18.77
2018-11-29T19:17:57.548Z,19.57
2018-11-29T19:20:26.284Z,19.23
2018-11-29T19:22:54.920Z,17.77
2018-11-29T19:25:23.417Z,18.57
2018-11-29T19:27:52.002Z,18.70
2018-11-29T19:30:26.295Z,17.97
2018-11-29T19:33:04.550Z,18.03
2018-11-29T19:35:33.338Z,17.27
2018-11-29T19:38:02.005Z,16.33
2018-11-29T19:40:30.640Z,17.27
2018-11-29T19:42:59.220Z,17.37
2018-11-29T19:45:27.955Z,18.60
2018-11-29T19:47:56.523Z,16.97
2018-11-29T19:50:25.085Z,18.00
2018-11-29T19:52:56.143Z,18.10
2018-11-29T19:55:28.207Z,18.43
2018-11-29T19:57:56.834Z,17.40
2018-11-29T20:00:25.616Z,18.27
2018-11-29T20:02:55.440Z,16.87
2018-11-29T20:05:24.036Z,17.30
2018-11-29T20:07:52.730Z,17.33
2018-11-29T20:10:21.280Z,17.37
2018-11-29T20:12:56.884Z,17.87
2018-11-29T20:15:25.846Z,17.63
2018-11-29T20:17:54.411Z,17.37
2018-11-29T20:20:23.022Z,17.30
2018-11-29T20:22:51.544Z,17.23
2018-11-29T20:25:21.380Z,17.27
2018-11-29T20:27:49.985Z,17.40
2018-11-29T20:30:20.604Z,16.37
2018-11-29T20:32:50.167Z,17.80
2018-11-29T20:35:19.414Z,17.43
2018-11-29T20:37:48.923Z,17.13
2018-11-29T20:40:18.659Z,17.73
2018-11-29T20:42:48.529Z,17.27
2018-11-29T20:45:26.703Z,17.03
2018-11-29T20:47:55.285Z,17.60
2018-11-29T20:50:25.590Z,18.03
2018-11-29T20:52:55.494Z,18.30
2018-11-29T20:55:26.696Z,18.83
2018-11-29T20:57:55.337Z,16.57
2018-11-29T21:00:23.966Z,18.23
2018-11-29T21:02:52.571Z,18.47
2018-11-29T21:05:22.196Z,18.10
2018-11-29T21:07:54.372Z,18.87
2018-11-29T21:10:24.257Z,18.30
2018-11-29T21:12:53.074Z,17.10
2018-11-29T21:15:22.064Z,18.03
2018-11-29T21:17:50.775Z,17.87
2018-11-29T21:20:20.611Z,17.50
2018-11-29T21:22:50.340Z,17.93
2018-11-29T21:25:21.591Z,17.73
2018-11-29T21:27:50.159Z,18.77
2018-11-29T21:30:18.850Z,19.30
2018-11-29T21:32:47.948Z,19.27
2018-11-29T21:35:18.766Z,18.33
2018-11-29T21:37:47.297Z,19.87
2018-11-29T21:40:30.617Z,19.27
2018-11-29T21:42:59.207Z,18.60
2018-11-29T21:45:28.058Z,18.63
2018-11-29T21:47:56.652Z,18.87
2018-11-29T21:50:25.263Z,19.93
2018-11-29T21:52:53.835Z,18.03
2018-11-29T21:55:22.453Z,19.10
2018-11-29T21:57:51.121Z,19.43
2018-11-29T22:00:21.037Z,19.20
2018-11-29T22:02:55.155Z,18.73
2018-11-29T22:05:24.000Z,18.53
2018-11-29T22:07:52.593Z,18.53
2018-11-29T22:10:21.258Z,19.60
2018-11-29T22:12:49.907Z,20.07
2018-11-29T22:15:18.515Z,18.73
2018-11-29T22:18:19.955Z,18.37
2018-11-29T22:20:52.809Z,18.80
2018-11-29T22:23:21.478Z,19.40
2018-11-29T22:25:50.358Z,17.83
2018-11-29T22:28:18.980Z,19.37
2018-11-29T22:30:47.676Z,19.17
2018-11-29T22:33:16.246Z,19.37
2018-11-29T22:35:44.861Z,18.90
2018-11-29T22:38:13.429Z,18.63
2018-11-29T22:40:42.243Z,19.53
2018-11-29T22:43:10.876Z,18.87
2018-11-29T22:45:39.454Z,19.20
2018-11-29T22:48:08.116Z,19.30
2018-11-29T22:50:36.656Z,18.93
2018-11-29T22:53:05.861Z,17.90
2018-11-29T22:55:34.365Z,18.63
2018-11-29T22:58:03.096Z,19.30
2018-11-29T23:00:37.007Z,18.93
2018-11-29T23:03:05.648Z,18.43
2018-11-29T23:05:34.261Z,19.07
2018-11-29T23:08:02.829Z,19.87
2018-11-29T23:10:31.418Z,19.83
2018-11-29T23:13:00.062Z,19.03
2018-11-29T23:15:28.610Z,18.57
2018-11-29T23:17:57.150Z,19.30
2018-11-29T23:20:25.704Z,19.07
2018-11-29T23:22:54.253Z,19.07
2018-11-29T23:25:22.832Z,19.87
2018-11-29T23:27:51.419Z,19.33
2018-11-29T23:30:19.927Z,19.63
2018-11-29T23:32:48.449Z,20.13
2018-11-29T23:35:16.975Z,19.70
2018-11-29T23:37:45.560Z,19.90
2018-11-29T23:40:17.486Z,19.77
2018-11-29T23:42:46.699Z,18.63
2018-11-29T23:45:15.393Z,19.53
2018-11-29T23:47:44.106Z,18.87
2018-11-29T23:50:18.498Z,18.47
2018-11-29T23:52:47.452Z,19.77
2018-11-29T23:55:18.543Z,19.10
2018-11-29T23:57:47.087Z,18.27
